sensor_id;sensor_type;location;lat;lon;timestamp;pressure;altitude;pressure_sealevel;temperature;humidity
52745;BME280;38637;49.984;20.426;2023-02-13T00:00:52;101330.56;;;3.13;80.34
52745;BME280;38637;49.984;20.426;2023-02-13T00:03:18;101323.63;;;3.11;80.43
52745;BME280;38637;49.984;20.426;2023-02-13T00:05:43;101335.13;;;3.13;80.58
52745;BME280;38637;49.984;20.426;2023-02-13T00:08:09;101318.56;;;3.08;80.80
52745;BME280;38637;49.984;20.426;2023-02-13T00:10:34;101313.00;;;3.09;80.55
52745;BME280;38637;49.984;20.426;2023-02-13T00:12:59;101320.41;;;3.07;81.15
52745;BME280;38637;49.984;20.426;2023-02-13T00:15:25;101285.81;;;2.94;80.65
52745;BME280;38637;49.984;20.426;2023-02-13T00:17:50;101309.44;;;3.09;81.22
52745;BME280;38637;49.984;20.426;2023-02-13T00:20:15;101310.31;;;3.09;80.86
52745;BME280;38637;49.984;20.426;2023-02-13T00:22:40;101302.88;;;3.11;81.23
52745;BME280;38637;49.984;20.426;2023-02-13T00:25:06;101300.69;;;3.15;81.06
52745;BME280;38637;49.984;20.426;2023-02-13T00:27:32;101299.53;;;3.17;80.64
52745;BME280;38637;49.984;20.426;2023-02-13T00:29:58;101300.34;;;3.18;80.84
52745;BME280;38637;49.984;20.426;2023-02-13T00:32:23;101285.69;;;3.12;80.97
52745;BME280;38637;49.984;20.426;2023-02-13T00:34:48;101297.50;;;3.19;80.63
52745;BME280;38637;49.984;20.426;2023-02-13T00:37:14;101302.06;;;3.19;81.13
52745;BME280;38637;49.984;20.426;2023-02-13T00:39:40;101302.56;;;3.06;81.43
52745;BME280;38637;49.984;20.426;2023-02-13T00:42:05;101299.16;;;3.04;81.20
52745;BME280;38637;49.984;20.426;2023-02-13T00:44:31;101305.72;;;3.02;81.91
52745;BME280;38637;49.984;20.426;2023-02-13T00:46:56;101296.44;;;2.96;82.36
52745;BME280;38637;49.984;20.426;2023-02-13T00:49:22;101292.53;;;2.90;82.03
52745;BME280;38637;49.984;20.426;2023-02-13T00:51:47;101294.91;;;2.85;82.44
52745;BME280;38637;49.984;20.426;2023-02-13T00:54:12;101292.16;;;2.77;83.17
52745;BME280;38637;49.984;20.426;2023-02-13T00:56:38;101289.56;;;2.59;83.44
52745;BME280;38637;49.984;20.426;2023-02-13T00:59:03;101288.22;;;2.55;83.93
52745;BME280;38637;49.984;20.426;2023-02-13T01:01:28;101286.16;;;2.57;84.29
52745;BME280;38637;49.984;20.426;2023-02-13T01:03:54;101285.69;;;2.62;83.93
52745;BME280;38637;49.984;20.426;2023-02-13T01:06:19;101279.63;;;2.60;83.81
52745;BME280;38637;49.984;20.426;2023-02-13T01:08:44;101288.94;;;2.73;83.80
52745;BME280;38637;49.984;20.426;2023-02-13T01:11:10;101274.94;;;2.70;83.75
52745;BME280;38637;49.984;20.426;2023-02-13T01:13:35;101275.31;;;2.83;83.51
52745;BME280;38637;49.984;20.426;2023-02-13T01:16:00;101234.50;;;2.70;83.41
52745;BME280;38637;49.984;20.426;2023-02-13T01:18:26;101261.03;;;2.91;82.82
52745;BME280;38637;49.984;20.426;2023-02-13T01:21:03;101264.06;;;2.96;83.29
52745;BME280;38637;49.984;20.426;2023-02-13T01:23:36;101261.19;;;2.97;82.64
52745;BME280;38637;49.984;20.426;2023-02-13T01:26:06;101271.81;;;2.99;82.88
52745;BME280;38637;49.984;20.426;2023-02-13T01:28:32;101263.38;;;3.02;82.65
52745;BME280;38637;49.984;20.426;2023-02-13T01:30:58;101264.06;;;3.04;82.84
52745;BME280;38637;49.984;20.426;2023-02-13T01:33:25;101258.81;;;3.03;82.83
52745;BME280;38637;49.984;20.426;2023-02-13T01:35:50;101255.81;;;2.97;82.26
52745;BME280;38637;49.984;20.426;2023-02-13T01:38:16;101258.28;;;2.83;82.75
52745;BME280;38637;49.984;20.426;2023-02-13T01:40:46;101252.72;;;2.76;83.32
52745;BME280;38637;49.984;20.426;2023-02-13T01:43:12;101248.53;;;2.82;83.22
52745;BME280;38637;49.984;20.426;2023-02-13T01:45:37;101240.94;;;2.85;82.87
52745;BME280;38637;49.984;20.426;2023-02-13T01:48:06;101239.91;;;2.86;83.68
52745;BME280;38637;49.984;20.426;2023-02-13T01:50:41;101235.03;;;2.90;82.90
52745;BME280;38637;49.984;20.426;2023-02-13T01:55:48;101226.28;;;2.96;83.26
52745;BME280;38637;49.984;20.426;2023-02-13T01:58:18;101219.88;;;2.97;83.42
52745;BME280;38637;49.984;20.426;2023-02-13T02:00:45;101222.06;;;3.02;83.30
52745;BME280;38637;49.984;20.426;2023-02-13T02:03:30;101221.59;;;3.06;82.90
52745;BME280;38637;49.984;20.426;2023-02-13T02:05:58;101186.47;;;2.90;83.11
52745;BME280;38637;49.984;20.426;2023-02-13T02:08:24;101216.69;;;3.10;82.51
52745;BME280;38637;49.984;20.426;2023-02-13T02:10:50;101208.41;;;3.11;82.49
52745;BME280;38637;49.984;20.426;2023-02-13T02:13:18;101212.13;;;3.10;82.59
52745;BME280;38637;49.984;20.426;2023-02-13T02:15:44;101206.41;;;3.13;82.63
52745;BME280;38637;49.984;20.426;2023-02-13T02:18:20;101202.69;;;3.14;82.44
52745;BME280;38637;49.984;20.426;2023-02-13T02:26:50;101209.25;;;3.20;82.02
52745;BME280;38637;49.984;20.426;2023-02-13T02:30:31;101203.03;;;3.19;81.77
52745;BME280;38637;49.984;20.426;2023-02-13T02:35:12;101208.94;;;3.23;82.20
52745;BME280;38637;49.984;20.426;2023-02-13T02:38:01;101211.28;;;3.26;82.16
52745;BME280;38637;49.984;20.426;2023-02-13T02:41:08;101200.16;;;3.29;82.49
52745;BME280;38637;49.984;20.426;2023-02-13T02:46:39;101209.59;;;3.33;81.83
52745;BME280;38637;49.984;20.426;2023-02-13T02:49:31;101201.00;;;3.30;81.81
52745;BME280;38637;49.984;20.426;2023-02-13T02:52:24;101179.41;;;3.13;81.99
52745;BME280;38637;49.984;20.426;2023-02-13T02:54:59;101213.50;;;3.31;81.63
52745;BME280;38637;49.984;20.426;2023-02-13T02:57:38;101213.50;;;3.31;82.08
52745;BME280;38637;49.984;20.426;2023-02-13T03:00:25;101214.84;;;3.35;82.00
52745;BME280;38637;49.984;20.426;2023-02-13T03:03:15;101206.75;;;3.35;81.90
52745;BME280;38637;49.984;20.426;2023-02-13T03:06:01;101208.75;;;3.33;82.39
52745;BME280;38637;49.984;20.426;2023-02-13T03:08:44;101213.66;;;3.29;81.88
52745;BME280;38637;49.984;20.426;2023-02-13T03:11:29;101211.13;;;3.28;82.54
52745;BME280;38637;49.984;20.426;2023-02-13T03:14:17;101222.59;;;3.30;82.54
52745;BME280;38637;49.984;20.426;2023-02-13T03:16:44;101214.50;;;3.30;82.61
52745;BME280;38637;49.984;20.426;2023-02-13T03:23:01;101218.72;;;3.16;83.10
52745;BME280;38637;49.984;20.426;2023-02-13T03:28:12;101226.59;;;2.93;84.52
52745;BME280;38637;49.984;20.426;2023-02-13T03:34:00;101222.72;;;2.87;84.71
52745;BME280;38637;49.984;20.426;2023-02-13T03:37:08;101238.91;;;2.87;85.00
52745;BME280;38637;49.984;20.426;2023-02-13T03:39:45;101238.91;;;2.87;84.57
52745;BME280;38637;49.984;20.426;2023-02-13T03:42:22;101230.31;;;2.92;85.22
52745;BME280;38637;49.984;20.426;2023-02-13T03:44:58;101231.66;;;2.96;85.17
52745;BME280;38637;49.984;20.426;2023-02-13T03:47:44;101230.34;;;3.00;84.25
52745;BME280;38637;49.984;20.426;2023-02-13T03:50:11;101232.03;;;3.01;84.56
52745;BME280;38637;49.984;20.426;2023-02-13T03:53:01;101232.38;;;3.06;84.60
52745;BME280;38637;49.984;20.426;2023-02-13T03:55:37;101235.75;;;3.08;83.78
52745;BME280;38637;49.984;20.426;2023-02-13T03:58:26;101233.03;;;3.08;83.77
52745;BME280;38637;49.984;20.426;2023-02-13T04:01:13;101240.16;;;3.09;84.24
52745;BME280;38637;49.984;20.426;2023-02-13T04:03:57;101231.19;;;3.09;84.26
52745;BME280;38637;49.984;20.426;2023-02-13T04:06:31;101234.38;;;3.04;84.17
52745;BME280;38637;49.984;20.426;2023-02-13T04:08:57;101232.88;;;3.02;84.68
52745;BME280;38637;49.984;20.426;2023-02-13T04:11:36;101232.88;;;3.02;84.09
52745;BME280;38637;49.984;20.426;2023-02-13T04:14:07;101220.22;;;2.94;84.57
52745;BME280;38637;49.984;20.426;2023-02-13T04:16:50;101234.38;;;2.96;84.25
52745;BME280;38637;49.984;20.426;2023-02-13T04:19:17;101230.00;;;2.95;84.47
52745;BME280;38637;49.984;20.426;2023-02-13T04:21:48;101224.09;;;2.91;84.79
52745;BME280;38637;49.984;20.426;2023-02-13T04:24:18;101227.44;;;2.93;85.23
52745;BME280;38637;49.984;20.426;2023-02-13T04:26:45;101227.09;;;2.96;85.35
52745;BME280;38637;49.984;20.426;2023-02-13T04:29:10;101223.25;;;2.99;85.02
52745;BME280;38637;49.984;20.426;2023-02-13T04:31:36;101211.78;;;2.97;85.14
52745;BME280;38637;49.984;20.426;2023-02-13T04:34:01;101218.34;;;2.94;85.76
52745;BME280;38637;49.984;20.426;2023-02-13T04:36:27;101221.72;;;2.96;86.62
52745;BME280;38637;49.984;20.426;2023-02-13T04:38:52;101230.50;;;2.98;86.34
52745;BME280;38637;49.984;20.426;2023-02-13T04:41:18;101228.63;;;2.99;86.74
52745;BME280;38637;49.984;20.426;2023-02-13T04:43:43;101224.09;;;2.99;87.01
52745;BME280;38637;49.984;20.426;2023-02-13T04:46:09;101219.38;;;3.02;87.57
52745;BME280;38637;49.984;20.426;2023-02-13T04:48:34;101231.84;;;3.03;88.19
52745;BME280;38637;49.984;20.426;2023-02-13T04:50:59;101228.16;;;3.04;88.41
52745;BME280;38637;49.984;20.426;2023-02-13T04:53:25;101226.28;;;3.04;89.28
52745;BME280;38637;49.984;20.426;2023-02-13T04:55:50;101227.13;;;3.05;89.94
52745;BME280;38637;49.984;20.426;2023-02-13T04:58:16;101227.97;;;3.05;90.26
52745;BME280;38637;49.984;20.426;2023-02-13T05:00:41;101233.03;;;3.08;90.90
52745;BME280;38637;49.984;20.426;2023-02-13T05:03:10;101224.44;;;3.13;89.82
52745;BME280;38637;49.984;20.426;2023-02-13T05:05:36;101232.22;;;3.16;90.77
52745;BME280;38637;49.984;20.426;2023-02-13T05:08:01;101221.41;;;3.16;90.70
52745;BME280;38637;49.984;20.426;2023-02-13T05:10:27;101220.25;;;3.18;90.71
52745;BME280;38637;49.984;20.426;2023-02-13T05:12:53;101220.25;;;3.18;91.35
52745;BME280;38637;49.984;20.426;2023-02-13T05:15:18;101223.59;;;3.20;92.11
52745;BME280;38637;49.984;20.426;2023-02-13T05:17:45;101218.19;;;3.20;92.14
52745;BME280;38637;49.984;20.426;2023-02-13T05:20:11;101223.25;;;3.23;92.36
52745;BME280;38637;49.984;20.426;2023-02-13T05:22:42;101208.06;;;3.14;93.81
52745;BME280;38637;49.984;20.426;2023-02-13T05:25:26;101224.44;;;3.21;94.57
52745;BME280;38637;49.984;20.426;2023-02-13T05:27:52;101219.03;;;3.21;95.05
52745;BME280;38637;49.984;20.426;2023-02-13T05:30:17;101234.75;;;3.26;94.89
52745;BME280;38637;49.984;20.426;2023-02-13T05:32:42;101230.19;;;3.26;94.81
52745;BME280;38637;49.984;20.426;2023-02-13T05:35:08;101225.47;;;3.28;95.65
52745;BME280;38637;49.984;20.426;2023-02-13T05:37:34;101226.31;;;3.29;96.03
52745;BME280;38637;49.984;20.426;2023-02-13T05:39:59;101232.41;;;3.31;95.68
52745;BME280;38637;49.984;20.426;2023-02-13T05:42:24;101227.50;;;3.34;95.31
52745;BME280;38637;49.984;20.426;2023-02-13T05:44:49;101234.25;;;3.38;95.18
52745;BME280;38637;49.984;20.426;2023-02-13T05:47:15;101237.63;;;3.40;95.27
52745;BME280;38637;49.984;20.426;2023-02-13T05:49:40;101244.19;;;3.38;95.93
52745;BME280;38637;49.984;20.426;2023-02-13T05:52:05;101248.44;;;3.40;95.54
52745;BME280;38637;49.984;20.426;2023-02-13T05:54:30;101233.91;;;3.41;96.38
52745;BME280;38637;49.984;20.426;2023-02-13T05:56:56;101240.81;;;3.44;95.66
52745;BME280;38637;49.984;20.426;2023-02-13T05:59:21;101247.56;;;3.48;95.83
52745;BME280;38637;49.984;20.426;2023-02-13T06:01:46;101247.22;;;3.51;95.24
52745;BME280;38637;49.984;20.426;2023-02-13T06:04:12;101243.19;;;3.55;95.04
52745;BME280;38637;49.984;20.426;2023-02-13T06:06:37;101238.44;;;3.57;95.73
52745;BME280;38637;49.984;20.426;2023-02-13T06:09:03;101229.84;;;3.54;95.16
52745;BME280;38637;49.984;20.426;2023-02-13T06:11:28;101238.59;;;3.64;95.35
52745;BME280;38637;49.984;20.426;2023-02-13T06:13:53;101243.16;;;3.63;95.12
52745;BME280;38637;49.984;20.426;2023-02-13T06:16:19;101238.28;;;3.67;95.85
52745;BME280;38637;49.984;20.426;2023-02-13T06:18:44;101245.72;;;3.65;95.81
52745;BME280;38637;49.984;20.426;2023-02-13T06:21:09;101237.28;;;3.68;96.21
52745;BME280;38637;49.984;20.426;2023-02-13T06:23:35;101234.38;;;3.69;96.70
52745;BME280;38637;49.984;20.426;2023-02-13T06:26:04;101233.41;;;3.71;96.60
52745;BME280;38637;49.984;20.426;2023-02-13T06:28:30;101238.63;;;3.72;96.83
52745;BME280;38637;49.984;20.426;2023-02-13T06:30:56;101239.28;;;3.74;96.89
52745;BME280;38637;49.984;20.426;2023-02-13T06:33:21;101250.59;;;3.78;96.79
52745;BME280;38637;49.984;20.426;2023-02-13T06:35:46;101252.47;;;3.77;96.33
52745;BME280;38637;49.984;20.426;2023-02-13T06:38:12;101249.91;;;3.76;96.83
52745;BME280;38637;49.984;20.426;2023-02-13T06:40:37;101256.69;;;3.80;97.32
52745;BME280;38637;49.984;20.426;2023-02-13T06:43:02;101257.19;;;3.83;96.49
52745;BME280;38637;49.984;20.426;2023-02-13T06:45:28;101266.81;;;3.86;96.70
52745;BME280;38637;49.984;20.426;2023-02-13T06:47:53;101267.66;;;3.86;98.58
52745;BME280;38637;49.984;20.426;2023-02-13T06:50:18;101255.97;;;3.94;99.01
52745;BME280;38637;49.984;20.426;2023-02-13T06:52:45;101257.97;;;4.00;98.14
52745;BME280;38637;49.984;20.426;2023-02-13T06:55:11;101259.16;;;4.06;98.14
52745;BME280;38637;49.984;20.426;2023-02-13T06:57:37;101257.13;;;4.08;97.73
52745;BME280;38637;49.984;20.426;2023-02-13T07:00:02;101257.69;;;3.95;97.94
52745;BME280;38637;49.984;20.426;2023-02-13T07:02:30;101245.66;;;3.98;97.64
52745;BME280;38637;49.984;20.426;2023-02-13T07:04:56;101262.34;;;4.09;97.13
52745;BME280;38637;49.984;20.426;2023-02-13T07:07:21;101251.03;;;4.06;97.20
52745;BME280;38637;49.984;20.426;2023-02-13T07:09:46;101262.50;;;4.16;96.37
52745;BME280;38637;49.984;20.426;2023-02-13T07:12:12;101264.69;;;4.21;96.50
52745;BME280;38637;49.984;20.426;2023-02-13T07:14:37;101265.88;;;4.26;97.13
52745;BME280;38637;49.984;20.426;2023-02-13T07:17:02;101267.38;;;4.29;96.64
52745;BME280;38637;49.984;20.426;2023-02-13T07:19:27;101264.00;;;4.35;95.90
52745;BME280;38637;49.984;20.426;2023-02-13T07:21:53;101264.97;;;4.42;95.83
52745;BME280;38637;49.984;20.426;2023-02-13T07:24:18;101264.28;;;4.48;96.26
52745;BME280;38637;49.984;20.426;2023-02-13T07:26:43;101260.66;;;4.56;95.80
52745;BME280;38637;49.984;20.426;2023-02-13T07:29:09;101264.19;;;4.65;95.92
52745;BME280;38637;49.984;20.426;2023-02-13T07:31:34;101262.47;;;4.72;95.39
52745;BME280;38637;49.984;20.426;2023-02-13T07:34:00;101257.38;;;4.77;95.03
52745;BME280;38637;49.984;20.426;2023-02-13T07:36:26;101255.66;;;4.84;94.17
52745;BME280;38637;49.984;20.426;2023-02-13T07:38:51;101249.34;;;4.92;94.15
52745;BME280;38637;49.984;20.426;2023-02-13T07:41:17;101251.19;;;4.91;93.97
52745;BME280;38637;49.984;20.426;2023-02-13T07:43:42;101258.78;;;4.96;93.40
52745;BME280;38637;49.984;20.426;2023-02-13T07:46:08;101264.88;;;4.98;93.66
52745;BME280;38637;49.984;20.426;2023-02-13T07:48:34;101256.63;;;4.91;93.62
52745;BME280;38637;49.984;20.426;2023-02-13T07:51:01;101242.41;;;4.89;94.01
52745;BME280;38637;49.984;20.426;2023-02-13T07:53:26;101253.56;;;4.94;93.61
52745;BME280;38637;49.984;20.426;2023-02-13T07:55:51;101250.84;;;4.94;93.08
52745;BME280;38637;49.984;20.426;2023-02-13T07:58:17;101250.66;;;4.96;93.80
52745;BME280;38637;49.984;20.426;2023-02-13T08:00:42;101248.25;;;5.01;93.30
52745;BME280;38637;49.984;20.426;2023-02-13T08:03:08;101239.91;;;5.11;93.10
52745;BME280;38637;49.984;20.426;2023-02-13T08:05:34;101229.34;;;5.24;93.04
52745;BME280;38637;49.984;20.426;2023-02-13T08:07:59;101226.53;;;5.32;92.57
52745;BME280;38637;49.984;20.426;2023-02-13T08:10:25;101232.94;;;5.39;91.99
52745;BME280;38637;49.984;20.426;2023-02-13T08:13:11;101240.22;;;5.39;91.12
52745;BME280;38637;49.984;20.426;2023-02-13T08:15:37;101248.53;;;5.37;91.06
52745;BME280;38637;49.984;20.426;2023-02-13T08:18:02;101258.31;;;5.38;91.35
52745;BME280;38637;49.984;20.426;2023-02-13T08:20:28;101254.50;;;5.33;91.70
52745;BME280;38637;49.984;20.426;2023-02-13T08:22:53;101255.81;;;5.37;91.99
52745;BME280;38637;49.984;20.426;2023-02-13T08:25:18;101258.56;;;5.51;91.04
52745;BME280;38637;49.984;20.426;2023-02-13T08:27:45;101245.13;;;5.58;91.15
52745;BME280;38637;49.984;20.426;2023-02-13T08:30:11;101255.13;;;5.58;91.16
52745;BME280;38637;49.984;20.426;2023-02-13T08:32:37;101248.00;;;5.57;90.77
52745;BME280;38637;49.984;20.426;2023-02-13T08:35:02;101253.44;;;5.57;90.66
52745;BME280;38637;49.984;20.426;2023-02-13T08:37:27;101252.91;;;5.61;90.89
52745;BME280;38637;49.984;20.426;2023-02-13T08:39:53;101247.38;;;5.55;90.40
52745;BME280;38637;49.984;20.426;2023-02-13T08:42:18;101253.63;;;5.55;90.37
52745;BME280;38637;49.984;20.426;2023-02-13T08:44:43;101244.78;;;5.38;90.31
52745;BME280;38637;49.984;20.426;2023-02-13T08:47:09;101246.22;;;5.49;90.41
52745;BME280;38637;49.984;20.426;2023-02-13T08:49:34;101244.94;;;5.60;90.28
52745;BME280;38637;49.984;20.426;2023-02-13T08:52:00;101247.88;;;5.73;89.88
52745;BME280;38637;49.984;20.426;2023-02-13T08:54:26;101242.50;;;5.88;89.16
52745;BME280;38637;49.984;20.426;2023-02-13T08:56:52;101237.97;;;6.03;88.39
52745;BME280;38637;49.984;20.426;2023-02-13T08:59:18;101240.66;;;6.18;87.99
52745;BME280;38637;49.984;20.426;2023-02-13T09:01:43;101238.06;;;6.25;87.43
52745;BME280;38637;49.984;20.426;2023-02-13T09:04:09;101237.94;;;6.33;86.85
52745;BME280;38637;49.984;20.426;2023-02-13T09:06:34;101237.13;;;6.32;86.29
52745;BME280;38637;49.984;20.426;2023-02-13T09:08:59;101234.03;;;6.35;85.46
52745;BME280;38637;49.984;20.426;2023-02-13T09:11:25;101224.56;;;6.46;85.20
52745;BME280;38637;49.984;20.426;2023-02-13T09:13:53;101225.78;;;6.58;84.58
52745;BME280;38637;49.984;20.426;2023-02-13T09:16:19;101226.41;;;6.60;83.90
52745;BME280;38637;49.984;20.426;2023-02-13T09:18:48;101227.25;;;6.61;83.57
52745;BME280;38637;49.984;20.426;2023-02-13T09:21:14;101239.81;;;6.62;83.03
52745;BME280;38637;49.984;20.426;2023-02-13T09:23:40;101237.34;;;6.67;83.20
52745;BME280;38637;49.984;20.426;2023-02-13T09:26:10;101228.81;;;6.70;82.84
52745;BME280;38637;49.984;20.426;2023-02-13T09:28:36;101224.44;;;6.69;83.46
52745;BME280;38637;49.984;20.426;2023-02-13T09:31:09;101213.81;;;6.89;83.08
52745;BME280;38637;49.984;20.426;2023-02-13T09:33:36;101219.81;;;7.06;82.40
52745;BME280;38637;49.984;20.426;2023-02-13T09:36:05;101208.63;;;7.16;81.63
52745;BME280;38637;49.984;20.426;2023-02-13T09:38:31;101230.59;;;7.35;80.94
52745;BME280;38637;49.984;20.426;2023-02-13T09:41:04;101229.53;;;7.36;80.45
52745;BME280;38637;49.984;20.426;2023-02-13T09:43:37;101224.38;;;7.20;79.61
52745;BME280;38637;49.984;20.426;2023-02-13T09:46:20;101230.44;;;7.22;79.50
52745;BME280;38637;49.984;20.426;2023-02-13T09:48:49;101230.63;;;7.21;79.41
52745;BME280;38637;49.984;20.426;2023-02-13T09:51:18;101218.59;;;6.87;79.01
52745;BME280;38637;49.984;20.426;2023-02-13T09:53:56;101237.72;;;7.00;80.09
52745;BME280;38637;49.984;20.426;2023-02-13T09:56:39;101236.56;;;7.09;79.92
52745;BME280;38637;49.984;20.426;2023-02-13T09:59:22;101234.78;;;7.17;79.57
52745;BME280;38637;49.984;20.426;2023-02-13T10:01:54;101225.47;;;7.26;79.82
52745;BME280;38637;49.984;20.426;2023-02-13T10:04:30;101224.50;;;7.12;78.84
52745;BME280;38637;49.984;20.426;2023-02-13T10:12:32;101212.56;;;7.13;78.91
52745;BME280;38637;49.984;20.426;2023-02-13T10:15:11;101199.66;;;7.15;78.57
52745;BME280;38637;49.984;20.426;2023-02-13T10:17:41;101194.50;;;7.20;78.46
52745;BME280;38637;49.984;20.426;2023-02-13T10:22:45;101192.09;;;7.32;78.57
52745;BME280;38637;49.984;20.426;2023-02-13T10:25:26;101184.31;;;7.29;78.57
52745;BME280;38637;49.984;20.426;2023-02-13T10:28:05;101176.63;;;7.32;78.40
52745;BME280;38637;49.984;20.426;2023-02-13T10:30:38;101177.91;;;7.36;78.55
52745;BME280;38637;49.984;20.426;2023-02-13T10:33:16;101174.25;;;7.51;78.04
52745;BME280;38637;49.984;20.426;2023-02-13T10:35:44;101183.00;;;7.25;78.60
52745;BME280;38637;49.984;20.426;2023-02-13T10:38:15;101171.91;;;7.20;79.74
52745;BME280;38637;49.984;20.426;2023-02-13T10:40:59;101161.44;;;7.17;78.50
52745;BME280;38637;49.984;20.426;2023-02-13T10:43:31;101159.03;;;7.07;77.87
52745;BME280;38637;49.984;20.426;2023-02-13T10:49:06;101161.28;;;7.03;80.09
52745;BME280;38637;49.984;20.426;2023-02-13T10:51:58;101148.47;;;7.19;79.36
52745;BME280;38637;49.984;20.426;2023-02-13T10:54:48;101142.66;;;7.50;77.81
52745;BME280;38637;49.984;20.426;2023-02-13T10:57:19;101149.44;;;7.60;76.41
52745;BME280;38637;49.984;20.426;2023-02-13T11:02:26;101147.81;;;7.66;76.23
52745;BME280;38637;49.984;20.426;2023-02-13T11:05:12;101140.94;;;7.70;75.39
52745;BME280;38637;49.984;20.426;2023-02-13T11:07:38;101119.88;;;7.79;74.89
52745;BME280;38637;49.984;20.426;2023-02-13T11:10:17;101136.75;;;7.74;74.44
52745;BME280;38637;49.984;20.426;2023-02-13T11:12:43;101134.22;;;7.66;74.28
52745;BME280;38637;49.984;20.426;2023-02-13T11:17:44;101126.56;;;7.83;74.21
52745;BME280;38637;49.984;20.426;2023-02-13T11:20:30;101115.56;;;7.98;73.71
52745;BME280;38637;49.984;20.426;2023-02-13T11:23:16;101123.16;;;8.09;73.66
52745;BME280;38637;49.984;20.426;2023-02-13T11:25:58;101121.53;;;8.15;73.15
52745;BME280;38637;49.984;20.426;2023-02-13T11:28:24;101123.22;;;8.22;73.04
52745;BME280;38637;49.984;20.426;2023-02-13T11:30:51;101124.28;;;8.28;73.13
52745;BME280;38637;49.984;20.426;2023-02-13T11:35:43;101119.75;;;7.94;71.84
52745;BME280;38637;49.984;20.426;2023-02-13T11:40:35;101127.41;;;7.83;73.17
52745;BME280;38637;49.984;20.426;2023-02-13T11:43:02;101126.56;;;7.83;74.04
52745;BME280;38637;49.984;20.426;2023-02-13T11:45:31;101129.41;;;7.68;75.26
52745;BME280;38637;49.984;20.426;2023-02-13T11:47:57;101131.16;;;7.48;76.23
52745;BME280;38637;49.984;20.426;2023-02-13T11:50:30;101138.63;;;7.39;77.01
52745;BME280;38637;49.984;20.426;2023-02-13T11:53:03;101134.66;;;7.13;76.77
52745;BME280;38637;49.984;20.426;2023-02-13T11:55:33;101139.31;;;6.98;77.17
52745;BME280;38637;49.984;20.426;2023-02-13T11:58:02;101131.03;;;6.85;78.73
52745;BME280;38637;49.984;20.426;2023-02-13T12:02:58;101129.53;;;6.61;80.87
52745;BME280;38637;49.984;20.426;2023-02-13T12:05:26;101135.06;;;6.67;81.15
52745;BME280;38637;49.984;20.426;2023-02-13T12:07:54;101120.56;;;6.82;81.71
52745;BME280;38637;49.984;20.426;2023-02-13T12:10:30;101130.69;;;6.95;81.85
52745;BME280;38637;49.984;20.426;2023-02-13T12:13:19;101120.59;;;7.10;81.67
52745;BME280;38637;49.984;20.426;2023-02-13T12:15:49;101125.25;;;7.16;81.75
52745;BME280;38637;49.984;20.426;2023-02-13T12:20:52;101125.88;;;6.90;82.42
52745;BME280;38637;49.984;20.426;2023-02-13T12:23:30;101127.47;;;6.63;83.44
52745;BME280;38637;49.984;20.426;2023-02-13T12:32:03;101123.72;;;6.64;83.75
52745;BME280;38637;49.984;20.426;2023-02-13T12:34:43;101120.38;;;6.83;83.37
52745;BME280;38637;49.984;20.426;2023-02-13T12:37:39;101122.81;;;6.78;83.92
52745;BME280;38637;49.984;20.426;2023-02-13T12:40:26;101118.06;;;6.80;83.92
52745;BME280;38637;49.984;20.426;2023-02-13T12:43:26;101123.47;;;6.80;83.75
52745;BME280;38637;49.984;20.426;2023-02-13T12:53:52;101091.91;;;7.01;82.03
52745;BME280;38637;49.984;20.426;2023-02-13T13:08:00;101110.88;;;7.22;80.65
52745;BME280;38637;49.984;20.426;2023-02-13T13:21:50;101098.47;;;7.13;80.30
52745;BME280;38637;49.984;20.426;2023-02-13T13:27:19;101095.16;;;6.89;80.92
52745;BME280;38637;49.984;20.426;2023-02-13T13:29:55;101088.91;;;6.89;81.08
52745;BME280;38637;49.984;20.426;2023-02-13T13:32:23;101093.06;;;6.91;81.43
52745;BME280;38637;49.984;20.426;2023-02-13T13:34:48;101106.75;;;6.98;81.70
52745;BME280;38637;49.984;20.426;2023-02-13T13:37:32;101087.56;;;7.06;81.40
52745;BME280;38637;49.984;20.426;2023-02-13T13:50:38;101102.72;;;7.22;80.28
52745;BME280;38637;49.984;20.426;2023-02-13T14:01:20;101074.03;;;7.13;81.29
52745;BME280;38637;49.984;20.426;2023-02-13T14:06:24;101066.03;;;7.05;80.86
52745;BME280;38637;49.984;20.426;2023-02-13T14:08:55;101075.56;;;6.94;81.08
52745;BME280;38637;49.984;20.426;2023-02-13T14:16:53;101073.00;;;6.64;83.51
52745;BME280;38637;49.984;20.426;2023-02-13T14:19:26;101062.72;;;6.60;83.62
52745;BME280;38637;49.984;20.426;2023-02-13T14:21:53;101065.16;;;6.55;84.53
52745;BME280;38637;49.984;20.426;2023-02-13T14:24:21;101064.25;;;6.48;84.89
52745;BME280;38637;49.984;20.426;2023-02-13T14:26:53;101051.47;;;6.41;85.68
52745;BME280;38637;49.984;20.426;2023-02-13T14:29:27;101061.50;;;6.41;86.12
52745;BME280;38637;49.984;20.426;2023-02-13T14:31:59;101055.00;;;6.42;86.73
52745;BME280;38637;49.984;20.426;2023-02-13T14:34:28;101043.97;;;6.43;86.71
52745;BME280;38637;49.984;20.426;2023-02-13T14:39:37;101040.69;;;6.48;86.74
52745;BME280;38637;49.984;20.426;2023-02-13T14:42:24;101043.59;;;6.47;86.73
52745;BME280;38637;49.984;20.426;2023-02-13T14:44:57;101027.09;;;6.48;87.17
52745;BME280;38637;49.984;20.426;2023-02-13T14:47:27;101031.13;;;6.52;86.82
52745;BME280;38637;49.984;20.426;2023-02-13T14:49:54;101018.19;;;6.54;86.66
52745;BME280;38637;49.984;20.426;2023-02-13T14:52:24;101022.59;;;6.55;86.51
52745;BME280;38637;49.984;20.426;2023-02-13T14:54:59;101021.09;;;6.53;86.23
52745;BME280;38637;49.984;20.426;2023-02-13T14:57:33;100995.31;;;6.42;85.81
52745;BME280;38637;49.984;20.426;2023-02-13T15:00:13;101005.00;;;6.51;85.96
52745;BME280;38637;49.984;20.426;2023-02-13T15:02:50;101004.13;;;6.44;86.03
52745;BME280;38637;49.984;20.426;2023-02-13T15:05:18;100991.28;;;6.31;86.16